Time;durP1;ratioP1;P1;durP2;ratioP2;P2;SDS_P1;SDS_P2;PMS_P1;PMS_P2;Temp;Humidity;BMP_temperature;BMP_pressure;BME280_temperature;BME280_humidity;BME280_pressure;Samples;Min_cycle;Max_cycle;Signal;HPM_P1;HPM_P2
2021/12/25 00:01:19;;;;;;;4.38;1.15;;;;;;;;;;5007853;28;20046;-82
2021/12/25 00:03:45;;;;;;;5.57;0.90;;;;;;;;;;5018498;28;20120;-81
2021/12/25 00:06:12;;;;;;;2.28;0.95;;;;;;;;;;4993368;28;20429;-81
2021/12/25 00:08:38;;;;;;;1.50;0.82;;;;;;;;;;5014967;28;20042;-82
2021/12/25 00:11:07;;;;;;;3.65;0.77;;;;;;;;;;5013904;28;20161;-83
2021/12/25 00:13:33;;;;;;;6.85;1.25;;;;;;;;;;5004186;28;20100;-84
2021/12/25 00:16:02;;;;;;;7.22;1.00;;;;;;;;;;4995233;28;20041;-82
2021/12/25 00:18:28;;;;;;;2.38;0.77;;;;;;;;;;5000822;28;20047;-83
2021/12/25 00:20:54;;;;;;;3.92;1.25;;;;;;;;;;5004086;28;20053;-82
2021/12/25 00:23:22;;;;;;;3.13;0.95;;;;;;;;;;5011945;28;20073;-82
2021/12/25 00:25:54;;;;;;;4.30;1.00;;;;;;;;;;5019771;28;20064;-82
2021/12/25 00:36:10;;;;;;;4.70;1.15;;;;;;;;;;5004721;28;20042;-83
2021/12/25 00:38:37;;;;;;;3.28;1.13;;;;;;;;;;5007163;28;20544;-83
2021/12/25 00:41:04;;;;;;;1.52;0.90;;;;;;;;;;5016876;28;20061;-83
2021/12/25 00:43:30;;;;;;;3.95;0.88;;;;;;;;;;5004083;28;20048;-82
2021/12/25 00:45:56;;;;;;;3.13;0.70;;;;;;;;;;5008070;28;20046;-83
2021/12/25 00:48:22;;;;;;;3.60;1.08;;;;;;;;;;5018154;28;20042;-83
2021/12/25 00:50:48;;;;;;;1.58;0.60;;;;;;;;;;5010653;28;20068;-83
2021/12/25 00:53:14;;;;;;;8.20;0.82;;;;;;;;;;4987166;28;20045;-83
2021/12/25 00:55:40;;;;;;;4.63;0.60;;;;;;;;;;5015258;28;20128;-83
2021/12/25 00:58:06;;;;;;;2.38;0.77;;;;;;;;;;5009734;28;20045;-83
2021/12/25 01:00:32;;;;;;;2.15;0.52;;;;;;;;;;4996219;28;20038;-83
2021/12/25 01:02:58;;;;;;;5.20;1.00;;;;;;;;;;5008873;28;20051;-83
2021/12/25 01:05:25;;;;;;;4.70;0.95;;;;;;;;;;5022755;28;20045;-83
2021/12/25 01:07:51;;;;;;;1.10;0.85;;;;;;;;;;5018860;28;20077;-82
2021/12/25 01:10:19;;;;;;;2.05;0.80;;;;;;;;;;5009895;28;20519;-82
2021/12/25 01:15:15;;;;;;;2.65;0.80;;;;;;;;;;5021635;28;20140;-82
2021/12/25 01:20:36;;;;;;;4.28;1.00;;;;;;;;;;5009485;28;20045;-83
2021/12/25 01:26:02;;;;;;;3.80;0.82;;;;;;;;;;5014587;28;20453;-82
2021/12/25 01:31:17;;;;;;;0.50;0.50;;;;;;;;;;5014529;28;20073;-82
2021/12/25 01:39:15;;;;;;;3.40;0.80;;;;;;;;;;5001666;28;20529;-81
2021/12/25 01:42:00;;;;;;;3.40;0.90;;;;;;;;;;4996920;28;20129;-83
2021/12/25 01:50:00;;;;;;;2.13;0.55;;;;;;;;;;5002589;28;20074;-82
2021/12/25 01:52:29;;;;;;;2.58;0.63;;;;;;;;;;5028065;28;20110;-81
2021/12/25 01:55:00;;;;;;;4.97;0.70;;;;;;;;;;5041677;28;20072;-81
2021/12/25 01:57:26;;;;;;;2.00;0.70;;;;;;;;;;5029231;28;20048;-81
2021/12/25 01:59:53;;;;;;;2.90;0.50;;;;;;;;;;5019335;28;20119;-81
2021/12/25 02:02:20;;;;;;;2.90;0.80;;;;;;;;;;5021261;28;20049;-82
2021/12/25 02:04:46;;;;;;;2.03;0.60;;;;;;;;;;5008112;28;20073;-82
2021/12/25 02:07:12;;;;;;;1.33;0.50;;;;;;;;;;5020474;28;20392;-81
2021/12/25 02:09:38;;;;;;;0.80;0.50;;;;;;;;;;5016756;28;20145;-81
2021/12/25 02:12:05;;;;;;;0.90;0.50;;;;;;;;;;5013730;28;20049;-81
2021/12/25 02:14:33;;;;;;;3.58;0.70;;;;;;;;;;5010932;28;20076;-81
2021/12/25 02:17:12;;;;;;;1.70;0.50;;;;;;;;;;5023068;28;20485;-81
2021/12/25 02:19:54;;;;;;;1.83;0.63;;;;;;;;;;5012689;28;20088;-82
2021/12/25 02:22:23;;;;;;;2.58;0.50;;;;;;;;;;5017705;28;20054;-81
2021/12/25 02:24:49;;;;;;;2.85;0.68;;;;;;;;;;5008797;28;20072;-81
2021/12/25 02:27:15;;;;;;;2.08;0.70;;;;;;;;;;5008807;28;20045;-81
2021/12/25 02:29:43;;;;;;;2.80;0.60;;;;;;;;;;5019596;28;20213;-82
2021/12/25 02:32:09;;;;;;;4.18;0.60;;;;;;;;;;5010601;28;20037;-81
2021/12/25 02:34:36;;;;;;;3.00;0.77;;;;;;;;;;5011492;28;20516;-82
2021/12/25 02:37:02;;;;;;;0.98;0.40;;;;;;;;;;5006944;28;20081;-82
2021/12/25 02:39:28;;;;;;;0.70;0.50;;;;;;;;;;5020322;28;20072;-82
2021/12/25 02:41:54;;;;;;;2.08;0.57;;;;;;;;;;5007919;28;20112;-82
2021/12/25 02:44:20;;;;;;;2.83;0.90;;;;;;;;;;5018629;28;20045;-82
2021/12/25 02:46:48;;;;;;;3.33;0.80;;;;;;;;;;5019171;28;20092;-81
2021/12/25 02:49:14;;;;;;;3.03;0.45;;;;;;;;;;5008059;28;20042;-81
2021/12/25 02:51:44;;;;;;;5.75;0.80;;;;;;;;;;5018110;28;20037;-81
2021/12/25 02:54:11;;;;;;;3.08;0.75;;;;;;;;;;5018804;28;20398;-81
2021/12/25 02:56:38;;;;;;;1.23;0.40;;;;;;;;;;5014371;28;20092;-82
2021/12/25 02:59:04;;;;;;;4.00;0.73;;;;;;;;;;5007268;28;20121;-82
2021/12/25 03:01:30;;;;;;;1.77;0.60;;;;;;;;;;5014277;28;20038;-82
2021/12/25 03:03:56;;;;;;;2.97;0.60;;;;;;;;;;5009585;28;20045;-82
2021/12/25 03:06:23;;;;;;;1.65;0.50;;;;;;;;;;5023087;28;20386;-82
2021/12/25 03:08:49;;;;;;;1.92;0.47;;;;;;;;;;5024330;28;20045;-82
2021/12/25 03:11:15;;;;;;;0.65;0.50;;;;;;;;;;5024405;28;20068;-82
2021/12/25 03:16:08;;;;;;;3.47;0.70;;;;;;;;;;5008134;28;20053;-82
2021/12/25 03:18:40;;;;;;;2.15;0.85;;;;;;;;;;5009182;28;20132;-82
2021/12/25 03:21:07;;;;;;;0.85;0.73;;;;;;;;;;5018494;28;20061;-82
2021/12/25 03:23:33;;;;;;;2.22;0.77;;;;;;;;;;5008718;28;20038;-82
2021/12/25 03:26:01;;;;;;;2.75;0.65;;;;;;;;;;5006640;28;20057;-81
2021/12/25 03:28:30;;;;;;;2.08;0.55;;;;;;;;;;5014340;28;20045;-82
2021/12/25 03:31:00;;;;;;;0.52;0.45;;;;;;;;;;5013617;28;20049;-81
2021/12/25 03:33:26;;;;;;;4.65;0.60;;;;;;;;;;4989879;28;20132;-82
2021/12/25 03:35:52;;;;;;;1.55;0.70;;;;;;;;;;4991817;28;20084;-81
2021/12/25 03:38:21;;;;;;;2.25;0.77;;;;;;;;;;5006909;28;20045;-82
2021/12/25 03:40:49;;;;;;;5.82;0.73;;;;;;;;;;5008781;28;20077;-82
2021/12/25 03:43:16;;;;;;;2.85;0.95;;;;;;;;;;5008801;28;20108;-82
2021/12/25 03:45:42;;;;;;;1.63;0.60;;;;;;;;;;4997033;28;20052;-82
2021/12/25 03:48:29;;;;;;;4.25;0.63;;;;;;;;;;5000618;28;20100;-82
2021/12/25 03:59:16;;;;;;;1.55;0.30;;;;;;;;;;5007021;28;20065;-82
2021/12/25 04:01:52;;;;;;;2.72;0.50;;;;;;;;;;5035129;28;20049;-80
2021/12/25 04:04:31;;;;;;;1.92;0.60;;;;;;;;;;5006741;28;20050;-81
2021/12/25 04:09:45;;;;;;;5.53;0.98;;;;;;;;;;4998392;28;20046;-81
2021/12/25 04:12:12;;;;;;;5.25;0.70;;;;;;;;;;5009489;28;20117;-82
2021/12/25 04:14:39;;;;;;;3.30;0.57;;;;;;;;;;5018494;28;20073;-81
2021/12/25 04:17:05;;;;;;;3.08;0.63;;;;;;;;;;5016775;28;20402;-81
2021/12/25 04:19:32;;;;;;;3.20;0.65;;;;;;;;;;5018692;28;20501;-81
2021/12/25 04:22:05;;;;;;;5.47;1.13;;;;;;;;;;5010978;28;20457;-82
2021/12/25 04:24:35;;;;;;;1.17;0.38;;;;;;;;;;5022721;28;21038;-81
2021/12/25 04:27:01;;;;;;;2.17;0.45;;;;;;;;;;5008948;28;20046;-82
2021/12/25 04:49:13;;;;;;;0.77;0.50;;;;;;;;;;5011167;28;20053;-81
2021/12/25 05:02:12;;;;;;;6.32;0.95;;;;;;;;;;5017653;28;20085;-82
2021/12/25 05:04:34;;;;;;;2.90;0.65;;;;;;;;;;5003567;28;20038;-81
2021/12/25 05:07:00;;;;;;;5.18;0.88;;;;;;;;;;5003455;28;20144;-81
2021/12/25 05:09:26;;;;;;;6.18;0.70;;;;;;;;;;5013038;28;20084;-81
2021/12/25 05:11:52;;;;;;;1.98;0.50;;;;;;;;;;5009482;28;20041;-81
2021/12/25 05:14:22;;;;;;;7.13;0.70;;;;;;;;;;5005603;28;20041;-81
2021/12/25 05:16:48;;;;;;;1.63;0.47;;;;;;;;;;5006866;28;20502;-80
2021/12/25 05:19:14;;;;;;;1.20;0.60;;;;;;;;;;5019959;28;20069;-80
2021/12/25 05:21:41;;;;;;;3.17;0.70;;;;;;;;;;5030732;28;20061;-80
2021/12/25 05:24:07;;;;;;;2.40;0.82;;;;;;;;;;5025530;28;20038;-81
2021/12/25 05:26:33;;;;;;;3.95;0.70;;;;;;;;;;5009882;28;20564;-81
2021/12/25 05:29:01;;;;;;;2.20;0.93;;;;;;;;;;5008654;28;20068;-81
2021/12/25 05:31:31;;;;;;;4.47;0.77;;;;;;;;;;5007006;28;20053;-81
2021/12/25 05:33:58;;;;;;;3.90;0.68;;;;;;;;;;5006073;28;20042;-81
2021/12/25 05:36:26;;;;;;;0.88;0.40;;;;;;;;;;5005844;28;20511;-82
2021/12/25 05:38:56;;;;;;;3.15;0.93;;;;;;;;;;5005541;28;20049;-82
2021/12/25 05:41:23;;;;;;;1.05;0.60;;;;;;;;;;5007382;28;20044;-81
2021/12/25 05:43:49;;;;;;;4.22;0.70;;;;;;;;;;5005517;28;20445;-81
2021/12/25 05:46:15;;;;;;;3.45;0.70;;;;;;;;;;5013291;28;20038;-81
2021/12/25 05:48:41;;;;;;;6.32;0.70;;;;;;;;;;5007908;28;20041;-82
2021/12/25 05:51:07;;;;;;;3.60;0.47;;;;;;;;;;4990468;28;20612;-82
2021/12/25 05:53:35;;;;;;;2.40;0.70;;;;;;;;;;5009548;28;20132;-81
2021/12/25 05:56:02;;;;;;;4.30;0.80;;;;;;;;;;5017773;28;20049;-83
2021/12/25 05:58:28;;;;;;;1.25;0.52;;;;;;;;;;5011033;28;20095;-82
2021/12/25 06:00:54;;;;;;;2.28;0.55;;;;;;;;;;5013087;28;20484;-82
2021/12/25 06:03:20;;;;;;;4.18;0.85;;;;;;;;;;4997794;28;20132;-81
2021/12/25 06:05:47;;;;;;;1.17;0.68;;;;;;;;;;5021906;28;20413;-81
2021/12/25 06:08:13;;;;;;;1.98;0.70;;;;;;;;;;5005895;28;20533;-82
2021/12/25 06:10:39;;;;;;;4.38;0.80;;;;;;;;;;5005250;28;20040;-80
2021/12/25 06:13:05;;;;;;;2.92;0.60;;;;;;;;;;4988163;28;20084;-82
2021/12/25 06:15:32;;;;;;;5.22;0.60;;;;;;;;;;5003671;28;20054;-82
2021/12/25 06:17:58;;;;;;;2.85;0.60;;;;;;;;;;4992909;28;20076;-81
2021/12/25 06:20:24;;;;;;;1.17;0.73;;;;;;;;;;5005786;28;20115;-80
2021/12/25 06:22:51;;;;;;;3.53;0.77;;;;;;;;;;5007062;28;20053;-81
2021/12/25 06:25:17;;;;;;;1.15;0.60;;;;;;;;;;5004370;28;20112;-81
2021/12/25 06:27:43;;;;;;;2.78;0.80;;;;;;;;;;5001498;28;20038;-81
2021/12/25 06:30:10;;;;;;;3.05;0.70;;;;;;;;;;5003167;28;20121;-81
2021/12/25 06:32:36;;;;;;;2.15;0.70;;;;;;;;;;5006932;28;20552;-82
2021/12/25 06:35:02;;;;;;;0.70;0.60;;;;;;;;;;4983215;28;20053;-81
2021/12/25 06:37:28;;;;;;;1.25;0.95;;;;;;;;;;5004355;28;20297;-81
2021/12/25 06:39:54;;;;;;;8.25;0.98;;;;;;;;;;5004312;28;20053;-81
2021/12/25 06:42:20;;;;;;;2.60;0.80;;;;;;;;;;5002280;28;20065;-80
2021/12/25 06:44:46;;;;;;;0.95;0.57;;;;;;;;;;5004086;28;20077;-81
2021/12/25 06:47:12;;;;;;;1.75;0.60;;;;;;;;;;5019102;28;20038;-80
2021/12/25 06:49:39;;;;;;;3.10;0.60;;;;;;;;;;5021864;28;20049;-81
2021/12/25 06:52:06;;;;;;;2.30;0.80;;;;;;;;;;5031460;28;20114;-81
2021/12/25 06:54:32;;;;;;;2.05;0.60;;;;;;;;;;5016956;28;20845;-82
2021/12/25 06:56:58;;;;;;;2.67;1.00;;;;;;;;;;5012143;28;20084;-84
2021/12/25 06:59:33;;;;;;;;;;;;;;;;;;5006762;28;20081;-81
2021/12/25 07:02:15;;;;;;;1.77;0.68;;;;;;;;;;5012154;28;19968;-82
2021/12/25 07:04:41;;;;;;;2.40;0.70;;;;;;;;;;4988472;28;20085;-82
2021/12/25 07:07:07;;;;;;;4.82;0.90;;;;;;;;;;4988469;28;20037;-82
2021/12/25 07:09:33;;;;;;;3.15;0.80;;;;;;;;;;4991472;28;20048;-82
2021/12/25 07:11:59;;;;;;;2.72;1.00;;;;;;;;;;5007853;28;20041;-81
2021/12/25 07:14:34;;;;;;;2.42;0.93;;;;;;;;;;5007159;28;20038;-81
2021/12/25 07:17:00;;;;;;;3.33;0.65;;;;;;;;;;4990376;28;20041;-81
2021/12/25 07:19:26;;;;;;;2.75;1.00;;;;;;;;;;5002576;28;20049;-82
2021/12/25 07:21:52;;;;;;;3.47;0.90;;;;;;;;;;5006732;28;20088;-82
2021/12/25 07:24:18;;;;;;;2.05;1.33;;;;;;;;;;5012242;28;20088;-81
2021/12/25 07:26:46;;;;;;;3.70;0.80;;;;;;;;;;5005668;28;20129;-82
2021/12/25 07:29:12;;;;;;;2.70;0.82;;;;;;;;;;5006377;28;20078;-80
2021/12/25 07:31:49;;;;;;;4.28;0.80;;;;;;;;;;5006153;28;20100;-81
2021/12/25 07:34:15;;;;;;;2.22;1.05;;;;;;;;;;5005107;28;20486;-81
2021/12/25 07:36:41;;;;;;;4.93;0.73;;;;;;;;;;5008916;28;20062;-81
2021/12/25 07:39:08;;;;;;;5.45;0.90;;;;;;;;;;5008549;28;20072;-81
2021/12/25 07:41:39;;;;;;;2.40;0.93;;;;;;;;;;5011364;28;20402;-82
2021/12/25 07:44:06;;;;;;;5.65;1.48;;;;;;;;;;4989735;28;20034;-82
2021/12/25 07:46:33;;;;;;;3.55;0.88;;;;;;;;;;5010334;28;20042;-81
2021/12/25 07:48:59;;;;;;;3.75;1.10;;;;;;;;;;5014877;28;20616;-82
2021/12/25 07:51:25;;;;;;;2.88;0.82;;;;;;;;;;5003680;28;20044;-82
2021/12/25 07:53:52;;;;;;;3.90;1.10;;;;;;;;;;5005260;28;20491;-83
2021/12/25 07:56:18;;;;;;;3.13;1.00;;;;;;;;;;5006418;28;20050;-82
2021/12/25 07:58:44;;;;;;;3.17;0.57;;;;;;;;;;4993691;28;20042;-82
2021/12/25 08:01:11;;;;;;;2.60;1.02;;;;;;;;;;4994613;28;20418;-82
2021/12/25 08:03:37;;;;;;;4.13;1.05;;;;;;;;;;5002675;28;20095;-82
2021/12/25 08:06:04;;;;;;;2.75;0.95;;;;;;;;;;5020760;28;20121;-82
2021/12/25 08:08:30;;;;;;;3.85;1.00;;;;;;;;;;5011778;28;20042;-82
2021/12/25 08:10:56;;;;;;;2.85;0.80;;;;;;;;;;5012092;28;20057;-81
2021/12/25 08:13:23;;;;;;;1.63;1.10;;;;;;;;;;5009196;28;20490;-81
2021/12/25 08:15:49;;;;;;;4.78;1.90;;;;;;;;;;5007737;28;20049;-82
2021/12/25 08:18:15;;;;;;;6.07;2.22;;;;;;;;;;5003961;28;20501;-82
2021/12/25 08:20:42;;;;;;;5.22;2.22;;;;;;;;;;5004573;28;20410;-82
2021/12/25 08:23:08;;;;;;;4.88;1.10;;;;;;;;;;5005713;28;20030;-81
2021/12/25 08:25:34;;;;;;;2.70;1.20;;;;;;;;;;5004029;28;21408;-82
2021/12/25 08:28:01;;;;;;;2.67;1.10;;;;;;;;;;5004402;28;20515;-82
2021/12/25 08:30:28;;;;;;;4.55;1.05;;;;;;;;;;5003836;28;20184;-80
2021/12/25 08:32:57;;;;;;;2.55;0.90;;;;;;;;;;5002877;28;20050;-80
2021/12/25 08:35:24;;;;;;;4.32;1.35;;;;;;;;;;5005602;28;20049;-80
2021/12/25 08:37:50;;;;;;;6.50;2.00;;;;;;;;;;5002287;28;20045;-80
2021/12/25 08:40:17;;;;;;;4.00;1.60;;;;;;;;;;5006304;28;20433;-81
2021/12/25 08:42:52;;;;;;;4.40;1.00;;;;;;;;;;5003390;28;20049;-81
2021/12/25 08:48:06;;;;;;;5.80;1.25;;;;;;;;;;5003145;28;20414;-82
2021/12/25 08:50:32;;;;;;;3.33;1.60;;;;;;;;;;5007362;28;20043;-81
2021/12/25 08:52:59;;;;;;;2.15;1.00;;;;;;;;;;5016732;28;20086;-82
2021/12/25 08:55:25;;;;;;;5.78;2.20;;;;;;;;;;5018656;28;20108;-81
2021/12/25 08:57:51;;;;;;;7.68;3.65;;;;;;;;;;5019003;28;20070;-81
2021/12/25 09:00:19;;;;;;;2.22;0.80;;;;;;;;;;4999438;28;20046;-82
2021/12/25 09:02:45;;;;;;;4.68;1.13;;;;;;;;;;5001073;28;20153;-82
2021/12/25 09:05:12;;;;;;;3.00;1.35;;;;;;;;;;5005357;28;20037;-81
2021/12/25 09:07:38;;;;;;;5.40;0.80;;;;;;;;;;5002390;28;20103;-81
2021/12/25 09:10:07;;;;;;;2.45;0.90;;;;;;;;;;4999884;28;20088;-81
2021/12/25 09:12:39;;;;;;;5.68;0.90;;;;;;;;;;4985906;28;20038;-81
2021/12/25 09:15:06;;;;;;;7.70;1.05;;;;;;;;;;5002594;28;20486;-81
2021/12/25 09:17:32;;;;;;;2.88;0.90;;;;;;;;;;4998489;28;20060;-81
2021/12/25 09:19:58;;;;;;;3.95;1.10;;;;;;;;;;5008788;28;20053;-83
2021/12/25 09:22:24;;;;;;;3.47;0.65;;;;;;;;;;5003512;28;20073;-81
2021/12/25 09:24:50;;;;;;;3.28;0.77;;;;;;;;;;5010918;28;20551;-81
2021/12/25 09:27:16;;;;;;;6.82;1.08;;;;;;;;;;5006864;28;20042;-82
2021/12/25 09:29:42;;;;;;;3.65;1.15;;;;;;;;;;5002131;28;20422;-82
2021/12/25 09:32:08;;;;;;;2.30;0.90;;;;;;;;;;5006337;28;20602;-82
2021/12/25 09:34:35;;;;;;;1.42;0.70;;;;;;;;;;5004283;28;20035;-84
2021/12/25 09:37:01;;;;;;;2.55;0.82;;;;;;;;;;4996020;28;20038;-82
2021/12/25 09:39:27;;;;;;;4.65;1.08;;;;;;;;;;5019873;28;20458;-84
2021/12/25 09:41:53;;;;;;;1.20;0.70;;;;;;;;;;5009486;28;20031;-81
2021/12/25 09:44:19;;;;;;;1.60;0.80;;;;;;;;;;5008914;28;20046;-83
2021/12/25 09:46:45;;;;;;;2.15;0.85;;;;;;;;;;5013582;28;20041;-82
2021/12/25 09:49:11;;;;;;;4.63;0.82;;;;;;;;;;5015972;28;20053;-82
2021/12/25 09:51:38;;;;;;;10.90;1.20;;;;;;;;;;5007326;28;20100;-81
2021/12/25 09:54:06;;;;;;;1.65;0.98;;;;;;;;;;5014828;28;20056;-81
2021/12/25 09:56:33;;;;;;;6.28;1.15;;;;;;;;;;5012529;28;20050;-84
2021/12/25 09:59:00;;;;;;;2.35;1.00;;;;;;;;;;5005623;28;20093;-82
2021/12/25 10:01:40;;;;;;;2.15;0.82;;;;;;;;;;5010779;28;20033;-82
2021/12/25 10:04:07;;;;;;;2.92;0.90;;;;;;;;;;4991239;28;20519;-81
2021/12/25 10:06:38;;;;;;;6.00;0.93;;;;;;;;;;4994442;28;20462;-82
2021/12/25 10:09:33;;;;;;;4.38;0.93;;;;;;;;;;5018565;28;20041;-83
2021/12/25 10:12:08;;;;;;;2.25;0.93;;;;;;;;;;4998330;28;20065;-81
2021/12/25 10:14:35;;;;;;;3.55;0.95;;;;;;;;;;5024295;28;20514;-83
2021/12/25 10:17:15;;;;;;;3.33;0.95;;;;;;;;;;4992604;28;20073;-82
2021/12/25 10:19:41;;;;;;;6.65;0.85;;;;;;;;;;4980193;28;20693;-81
2021/12/25 10:22:09;;;;;;;2.40;0.73;;;;;;;;;;5003536;28;20409;-83
2021/12/25 10:24:50;;;;;;;3.45;0.80;;;;;;;;;;4994407;28;20033;-82
2021/12/25 10:27:19;;;;;;;2.10;0.77;;;;;;;;;;5004547;28;20147;-83
2021/12/25 10:29:45;;;;;;;2.67;0.98;;;;;;;;;;5004914;28;20042;-81
2021/12/25 10:32:18;;;;;;;4.28;1.23;;;;;;;;;;5008592;28;20693;-82
2021/12/25 10:34:44;;;;;;;3.72;1.48;;;;;;;;;;5003058;28;20042;-80
2021/12/25 10:37:12;;;;;;;2.88;1.08;;;;;;;;;;5005368;28;20041;-82
2021/12/25 10:39:38;;;;;;;3.00;1.13;;;;;;;;;;5001035;28;20560;-82
2021/12/25 10:42:11;;;;;;;4.40;1.20;;;;;;;;;;5007405;28;20050;-81
2021/12/25 10:44:39;;;;;;;2.65;1.23;;;;;;;;;;5003608;28;20064;-82
2021/12/25 10:47:08;;;;;;;3.65;1.50;;;;;;;;;;5004953;28;20049;-81
2021/12/25 10:50:03;;;;;;;4.25;0.90;;;;;;;;;;5005168;28;20528;-83
2021/12/25 10:52:30;;;;;;;0.88;0.70;;;;;;;;;;4995270;28;20557;-82
2021/12/25 10:54:59;;;;;;;1.60;0.95;;;;;;;;;;5006103;28;20115;-83
2021/12/25 10:57:31;;;;;;;4.50;1.52;;;;;;;;;;5005638;28;20050;-80
2021/12/25 10:59:57;;;;;;;2.15;0.90;;;;;;;;;;5004529;28;20041;-82
2021/12/25 11:02:34;;;;;;;3.85;1.10;;;;;;;;;;5000421;28;20093;-82
2021/12/25 11:05:00;;;;;;;3.28;1.05;;;;;;;;;;5001639;28;20104;-80
2021/12/25 11:07:28;;;;;;;2.65;1.05;;;;;;;;;;5004726;28;20026;-82
2021/12/25 11:10:06;;;;;;;16.88;4.30;;;;;;;;;;5004261;28;20095;-81
2021/12/25 11:12:34;;;;;;;3.03;1.90;;;;;;;;;;5006104;28;20209;-81
2021/12/25 11:15:19;;;;;;;4.47;1.95;;;;;;;;;;5004590;28;20081;-82
2021/12/25 11:17:50;;;;;;;3.30;0.90;;;;;;;;;;5007930;28;20497;-81
2021/12/25 11:20:21;;;;;;;8.13;1.38;;;;;;;;;;5002276;28;20075;-82
2021/12/25 11:22:50;;;;;;;3.35;1.08;;;;;;;;;;5002183;28;20046;-82
2021/12/25 11:25:16;;;;;;;5.05;1.40;;;;;;;;;;5004277;28;20065;-81
2021/12/25 11:27:43;;;;;;;2.83;1.00;;;;;;;;;;5007176;28;21770;-81
2021/12/25 11:30:09;;;;;;;2.20;0.80;;;;;;;;;;4984875;28;20041;-82
2021/12/25 11:32:35;;;;;;;3.60;1.30;;;;;;;;;;5003136;28;20486;-81
2021/12/25 11:35:02;;;;;;;2.25;1.23;;;;;;;;;;5003721;28;20476;-81
2021/12/25 11:37:28;;;;;;;1.60;0.95;;;;;;;;;;5000337;28;20529;-82
2021/12/25 11:39:55;;;;;;;3.50;1.80;;;;;;;;;;5009945;28;20057;-82
2021/12/25 11:42:22;;;;;;;3.15;1.13;;;;;;;;;;5018352;28;20069;-81
2021/12/25 11:44:53;;;;;;;7.05;2.38;;;;;;;;;;5004588;28;20041;-82
2021/12/25 11:47:34;;;;;;;4.90;1.10;;;;;;;;;;5018209;28;20103;-82
2021/12/25 11:50:02;;;;;;;4.68;1.80;;;;;;;;;;5001269;28;20074;-82
2021/12/25 11:52:35;;;;;;;3.10;1.30;;;;;;;;;;5001119;28;20056;-83
2021/12/25 11:55:28;;;;;;;4.32;0.93;;;;;;;;;;5015624;28;20037;-84
2021/12/25 11:58:05;;;;;;;3.47;1.25;;;;;;;;;;5005903;28;20041;-83
2021/12/25 12:00:35;;;;;;;5.38;1.40;;;;;;;;;;5003424;28;20049;-82
2021/12/25 12:03:01;;;;;;;3.92;1.20;;;;;;;;;;5005077;28;20088;-83
2021/12/25 12:05:29;;;;;;;6.18;1.40;;;;;;;;;;5006517;28;20052;-83
2021/12/25 12:07:58;;;;;;;5.05;1.20;;;;;;;;;;4999759;28;20763;-83
2021/12/25 12:10:48;;;;;;;7.03;1.35;;;;;;;;;;5002670;28;20045;-83
2021/12/25 12:13:19;;;;;;;1.92;0.90;;;;;;;;;;5003816;28;20037;-83
2021/12/25 12:15:49;;;;;;;2.17;1.13;;;;;;;;;;4991874;28;20038;-84
2021/12/25 12:18:29;;;;;;;5.30;1.15;;;;;;;;;;5004996;28;20053;-83
2021/12/25 12:21:00;;;;;;;3.30;1.00;;;;;;;;;;5021736;28;20049;-83
2021/12/25 12:26:36;;;;;;;2.55;0.82;;;;;;;;;;5009088;28;20408;-82
2021/12/25 12:29:02;;;;;;;4.18;1.10;;;;;;;;;;5003901;28;20038;-83
2021/12/25 12:31:35;;;;;;;4.47;1.13;;;;;;;;;;5007769;28;20037;-84
2021/12/25 12:34:01;;;;;;;7.10;1.30;;;;;;;;;;4987485;28;20042;-84
2021/12/25 12:36:28;;;;;;;2.38;1.00;;;;;;;;;;5000190;28;20575;-83
2021/12/25 12:39:12;;;;;;;3.55;1.60;;;;;;;;;;4998685;28;20390;-84
2021/12/25 12:41:42;;;;;;;1.95;1.10;;;;;;;;;;5002998;28;20038;-84
2021/12/25 12:44:08;;;;;;;1.30;0.90;;;;;;;;;;5000270;28;20049;-82
2021/12/25 12:46:50;;;;;;;4.63;1.90;;;;;;;;;;5002306;28;20116;-83
2021/12/25 12:49:19;;;;;;;4.22;1.17;;;;;;;;;;5001555;28;20505;-84
2021/12/25 12:51:46;;;;;;;6.55;1.33;;;;;;;;;;4986911;28;20050;-83
2021/12/25 12:54:32;;;;;;;2.85;1.20;;;;;;;;;;5003810;28;20084;-84
2021/12/25 12:57:02;;;;;;;7.38;1.70;;;;;;;;;;5004852;28;20033;-85
2021/12/25 13:00:01;;;;;;;1.98;1.38;;;;;;;;;;4997410;28;20050;-83
2021/12/25 13:02:29;;;;;;;1.05;0.90;;;;;;;;;;4979054;28;20108;-85
2021/12/25 13:04:58;;;;;;;4.80;1.40;;;;;;;;;;5002022;28;20417;-84
2021/12/25 13:07:25;;;;;;;3.35;1.80;;;;;;;;;;4985452;28;20053;-83
2021/12/25 13:09:59;;;;;;;10.13;3.80;;;;;;;;;;4999165;28;20058;-83
2021/12/25 13:12:36;;;;;;;2.22;1.08;;;;;;;;;;5003428;28;20056;-82
2021/12/25 13:15:05;;;;;;;5.90;2.03;;;;;;;;;;5002834;28;20045;-83
2021/12/25 13:17:32;;;;;;;2.33;1.27;;;;;;;;;;5005293;28;20390;-84
2021/12/25 13:19:58;;;;;;;6.50;1.92;;;;;;;;;;5005800;28;20085;-83
2021/12/25 13:22:24;;;;;;;4.65;2.40;;;;;;;;;;5005536;28;20034;-83
2021/12/25 13:24:55;;;;;;;3.08;1.17;;;;;;;;;;5004602;28;20053;-83
2021/12/25 13:27:22;;;;;;;8.75;2.00;;;;;;;;;;5008206;28;20077;-83
2021/12/25 13:29:48;;;;;;;7.82;3.58;;;;;;;;;;5007386;28;20077;-82
2021/12/25 13:32:23;;;;;;;5.18;2.03;;;;;;;;;;5008803;28;20497;-82
2021/12/25 13:34:49;;;;;;;4.72;2.00;;;;;;;;;;5006280;28;20042;-83
2021/12/25 13:37:17;;;;;;;4.68;2.00;;;;;;;;;;5009836;28;20042;-83
2021/12/25 13:39:43;;;;;;;3.90;1.17;;;;;;;;;;4993305;28;20064;-84
2021/12/25 13:42:12;;;;;;;3.67;1.70;;;;;;;;;;5006706;28;20065;-82
2021/12/25 13:44:40;;;;;;;3.80;1.38;;;;;;;;;;5005495;28;20076;-82
2021/12/25 13:47:23;;;;;;;2.42;1.27;;;;;;;;;;4992731;28;20199;-83
2021/12/25 13:49:50;;;;;;;2.53;1.10;;;;;;;;;;5008223;28;20065;-84
2021/12/25 13:52:19;;;;;;;2.40;1.40;;;;;;;;;;4999569;28;20050;-83
2021/12/25 13:54:48;;;;;;;4.57;1.35;;;;;;;;;;4996326;28;20189;-84
2021/12/25 13:57:18;;;;;;;5.20;1.15;;;;;;;;;;4995262;28;20060;-84
2021/12/25 13:59:50;;;;;;;4.05;1.20;;;;;;;;;;5001330;28;20064;-83
2021/12/25 14:02:16;;;;;;;3.85;1.17;;;;;;;;;;5007398;28;20193;-85
2021/12/25 14:04:44;;;;;;;2.75;1.13;;;;;;;;;;5006848;28;20125;-84
2021/12/25 14:07:13;;;;;;;2.53;1.52;;;;;;;;;;5007500;28;20620;-84
2021/12/25 14:09:39;;;;;;;2.72;1.67;;;;;;;;;;5008659;28;20410;-83
2021/12/25 14:12:05;;;;;;;4.00;1.67;;;;;;;;;;5008637;28;20477;-82
2021/12/25 14:14:32;;;;;;;3.35;2.10;;;;;;;;;;5007690;28;20698;-83
2021/12/25 14:16:59;;;;;;;4.22;1.90;;;;;;;;;;5007883;28;20038;-83
2021/12/25 14:19:31;;;;;;;3.15;1.90;;;;;;;;;;5004756;28;20066;-84
2021/12/25 14:21:59;;;;;;;3.85;1.42;;;;;;;;;;5005741;28;20203;-83
2021/12/25 14:24:25;;;;;;;8.55;1.92;;;;;;;;;;5006147;28;20042;-83
2021/12/25 14:27:05;;;;;;;2.70;1.10;;;;;;;;;;4989239;28;20065;-83
2021/12/25 14:29:31;;;;;;;5.43;1.33;;;;;;;;;;5007649;28;20050;-83
2021/12/25 14:31:57;;;;;;;2.60;1.10;;;;;;;;;;5006256;28;20097;-83
2021/12/25 14:34:34;;;;;;;4.85;1.65;;;;;;;;;;4988014;28;20049;-83
2021/12/25 14:37:02;;;;;;;2.35;1.60;;;;;;;;;;5005782;28;20524;-83
2021/12/25 14:39:28;;;;;;;2.28;1.40;;;;;;;;;;5004605;28;20057;-83
2021/12/25 14:41:54;;;;;;;5.38;1.92;;;;;;;;;;5005168;28;20041;-83
2021/12/25 14:44:23;;;;;;;3.00;1.40;;;;;;;;;;5007211;28;20050;-83
2021/12/25 14:46:51;;;;;;;2.55;1.17;;;;;;;;;;5011071;28;20088;-83
2021/12/25 14:49:17;;;;;;;4.03;1.20;;;;;;;;;;5006206;28;20100;-83
2021/12/25 14:51:46;;;;;;;2.60;1.27;;;;;;;;;;5011251;28;20600;-82
2021/12/25 14:54:12;;;;;;;4.13;1.73;;;;;;;;;;5011367;28;20042;-85
2021/12/25 14:56:43;;;;;;;2.40;1.52;;;;;;;;;;5001866;28;20085;-83
2021/12/25 14:59:15;;;;;;;2.45;1.42;;;;;;;;;;4995336;28;20054;-83
2021/12/25 15:01:46;;;;;;;4.15;1.95;;;;;;;;;;5005839;28;20104;-84
2021/12/25 15:04:19;;;;;;;4.82;1.60;;;;;;;;;;4993856;28;20177;-83
2021/12/25 15:06:49;;;;;;;2.13;1.70;;;;;;;;;;4998373;28;20061;-84
2021/12/25 15:09:23;;;;;;;3.72;1.70;;;;;;;;;;5016789;28;20781;-85
2021/12/25 15:12:02;;;;;;;4.82;2.17;;;;;;;;;;5003838;28;20088;-83
2021/12/25 15:14:30;;;;;;;6.72;2.20;;;;;;;;;;5002520;28;20041;-83
2021/12/25 15:17:16;;;;;;;2.80;1.75;;;;;;;;;;5003357;28;20074;-83
2021/12/25 15:19:46;;;;;;;3.15;1.70;;;;;;;;;;5003171;28;20712;-82
2021/12/25 15:22:21;;;;;;;4.10;1.67;;;;;;;;;;5001457;28;20068;-82
2021/12/25 15:24:51;;;;;;;1.95;1.33;;;;;;;;;;5003888;28;20445;-83
2021/12/25 15:27:46;;;;;;;3.90;2.03;;;;;;;;;;5006488;28;20070;-83
2021/12/25 15:30:39;;;;;;;3.60;2.50;;;;;;;;;;4992912;28;20058;-83
2021/12/25 15:33:09;;;;;;;4.22;2.30;;;;;;;;;;5000580;28;20088;-83
2021/12/25 15:35:40;;;;;;;5.97;1.77;;;;;;;;;;5002764;28;20070;-83
2021/12/25 15:38:07;;;;;;;6.00;1.50;;;;;;;;;;5004912;28;20516;-82
2021/12/25 15:40:38;;;;;;;3.63;1.90;;;;;;;;;;5002624;28;20045;-82
2021/12/25 15:43:04;;;;;;;4.28;2.20;;;;;;;;;;5003560;28;20068;-83
2021/12/25 15:45:30;;;;;;;5.90;3.17;;;;;;;;;;5002367;28;20273;-83
2021/12/25 15:47:58;;;;;;;3.58;2.25;;;;;;;;;;5002629;28;20038;-83
2021/12/25 15:50:30;;;;;;;8.30;3.05;;;;;;;;;;5000519;28;20050;-83
2021/12/25 15:52:57;;;;;;;7.38;2.65;;;;;;;;;;5001724;28;20068;-83
2021/12/25 15:55:27;;;;;;;5.40;2.70;;;;;;;;;;5000809;28;20367;-82
2021/12/25 15:57:58;;;;;;;7.50;2.35;;;;;;;;;;5002741;28;20049;-82
2021/12/25 16:00:26;;;;;;;3.38;2.33;;;;;;;;;;4998501;28;20509;-83
2021/12/25 16:02:53;;;;;;;4.78;1.88;;;;;;;;;;5002466;28;20581;-82
2021/12/25 16:05:19;;;;;;;3.72;2.08;;;;;;;;;;5003990;28;20057;-82
2021/12/25 16:07:45;;;;;;;5.63;2.10;;;;;;;;;;5001906;28;20037;-83
2021/12/25 16:10:11;;;;;;;5.78;2.10;;;;;;;;;;5001999;28;20508;-82
2021/12/25 16:12:37;;;;;;;10.07;2.08;;;;;;;;;;4998678;28;20212;-82